Grisdale, Washington
Current Conditions -  °F | °C
As of 12:05 PM on Friday 31 Oct 2014 (Local Time) from KSHN Reporting Station
Overcast Overcast  
Wind Chill: 51°   Ceiling: 1100
Heat Index: 51°   Visibility: 8mi
Dew Point: 48°   Wind: 5mph
Humidity: 89%   Direction: 220°SW
Pressure: 29.8"   Gusts: NA
Location:  47.555°N, 123.746°W
Report Text: KSHN 311905Z AUTO 22004KT 8SM BKN011 BKN018 OVC055 11/09 A2980 RMK AO2 T01060089 TSNO
Loading
Personal Weather Stations






























Interactive Weather Map New forecast layout! Learn more

10-Day Weather Forecast

Advertisements
Track Severe Weather on mobile